Terminal Aerodrome Forecast
Issued by NWS Newport/Morehead City, NC

Home | Current Version | Previous Version | Graphics & Text | Print | Product List | Glossary On
Versions: 1 2 3 4 5 6 7 8 9 10 11 12 13 14 15 16 17 18 19 20 21 22
000
FTUS42 KMHX 041720
TAFEWN
TAF
KEWN 041720Z 0418/0518 VRB03KT P6SM VCSH OVC070
     FM050000 VRB04KT 4SM SHRA BR OVC030
     FM050300 09005KT 2SM SHRA BR OVC015
     FM050600 06005KT 2SM -RA BR SCT002 OVC007
     FM051300 35007KT 6SM BR OVC015
     FM051500 34007KT P6SM BKN110=

USA.gov is the U.S. government's official web portal to all federal, state and local government web resources and services.